Back to Top

Language: 

My Weather Underground Personal Weather Station Historical Data with Graphs...

Delerius Weather Station Historical Data
Daily Summary for January 10, 2018 Units:  Metric    English   Both
« Previous Day
Next Day »
Daily Weekly Monthly Yearly Custom
  High: Low: Average:
Temperature: 8.3 °C 4.6 °C 7.2 °C
Dew Point: 7.8 °C 4.3 °C 6.3 °C
Humidity: 98 % 90 % 94 %
Wind Speed: 11.3 km/h 0 km/h 4.3 km/h
Wind Gust: 17.7 km/h - -
Wind:- - NW
Pressure: 1006 hPa 1003.3 hPa -
Precipitation: 0.76 mm    
Historical Graphs
 
 
Tabular Data for January 10, 2018
Time Temperature Dew Point Pressure Wind Wind Speed Wind Gust Humidity Rainfall Rate (Hourly) solar Conditions
09:37 4.6 °C 4.3 °C 1003.3 hPa Calm     98 % 0.25 mm 18 W/m2
12:19 6.4 °C 6.1 °C 1003.6 hPa Calm     98 % 0 mm 118 W/m2
12:58 7.7 °C 7.4 °C 1003.6 hPa NW 1.6 km/h 6.4 km/h 98 % 0 mm 250 W/m2
13:04 7.7 °C 7.4 °C 1003.6 hPa NW 4.8 km/h 8 km/h 98 % 0 mm 120 W/m2
13:12 7.6 °C 7.3 °C 1003.3 hPa Calm   3.2 km/h 98 % 0 mm 97 W/m2
13:25 7.4 °C 7.1 °C 1003.6 hPa NW 3.2 km/h 9.7 km/h 98 % 0 mm 192 W/m2
13:33 7.5 °C 7.2 °C 1003.6 hPa WNW 1.6 km/h 11.3 km/h 98 % 0 mm 118 W/m2
14:18 8 °C 7.7 °C 1003.9 hPa Calm   1.6 km/h 98 % 0 mm 193 W/m2
14:39 8.3 °C 7.8 °C 1003.9 hPa Calm   3.2 km/h 97 % 0 mm 56 W/m2
14:49 8 °C 7.4 °C 1004.3 hPa NW 4.8 km/h 11.3 km/h 96 % 0 mm 56 W/m2
15:00 7.8 °C 7.1 °C 1004.3 hPa NW 1.6 km/h 3.2 km/h 95 % 0 mm 56 W/m2
15:06 7.8 °C 7.1 °C 1004.3 hPa Calm   6.4 km/h 95 % 0 mm 51 W/m2
15:17 7.8 °C 7.1 °C 1004.6 hPa NW 3.2 km/h 6.4 km/h 95 % 0 mm 28 W/m2
15:26 7.7 °C 6.8 °C 1004.6 hPa Calm   4.8 km/h 94 % 0 mm 26 W/m2
15:33 7.7 °C 6.8 °C 1004.6 hPa Calm   3.2 km/h 94 % 0 mm 18 W/m2
15:39 7.7 °C 6.8 °C 1005 hPa NW 1.6 km/h 8 km/h 94 % 0 mm 14 W/m2
15:46 7.5 °C 6.4 °C 1005 hPa WNW 8 km/h 14.5 km/h 93 % 0 mm 11 W/m2
15:54 7.3 °C 6.2 °C 1005 hPa NW 4.8 km/h 9.7 km/h 93 % 0 mm 9 W/m2
16:12 7.2 °C 6 °C 1005 hPa NW 6.4 km/h 12.9 km/h 92 % 0 mm 5 W/m2
16:22 7.1 °C 5.7 °C 1005.3 hPa NW 6.4 km/h 14.5 km/h 91 % 0 mm 0 W/m2
16:30 7.1 °C 5.7 °C 1005.3 hPa NW 9.7 km/h 17.7 km/h 91 % 0 mm 0 W/m2
16:44 7 °C 5.4 °C 1005.6 hPa NW 9.7 km/h 16.1 km/h 90 % 0 mm 0 W/m2
16:50 6.9 °C 5.4 °C 1005.6 hPa NW 11.3 km/h 17.7 km/h 90 % 0 mm 0 W/m2
17:02 6.9 °C 5.4 °C 1005.6 hPa NW 8 km/h 14.5 km/h 90 % 0 mm 0 W/m2
17:12 6.8 °C 5.4 °C 1005.6 hPa NW 9.7 km/h 14.5 km/h 91 % 0 mm 0 W/m2
17:26 6.7 °C 5.3 °C 1005.6 hPa NW 8 km/h 16.1 km/h 91 % 0 mm 0 W/m2
17:36 6.6 °C 5.2 °C 1005.6 hPa NW 6.4 km/h 12.9 km/h 91 % 0 mm 0 W/m2
17:49 6.4 °C 5.1 °C 1006 hPa NW 8 km/h 12.9 km/h 91 % 0 mm 0 W/m2
17:58 6.3 °C 4.9 °C 1006 hPa NW 6.4 km/h 12.9 km/h 91 % 0 mm 0 W/m2
Delerius-Weather
Compliments of Weather Underground - 1.25 mb

Data updates at regular intervals.